NVY845 KBID-KXMR
Flight info
| Callsign | NVY845 |
|---|---|
| Flight time | N/A |
| Altitude | 28000 |
| Route | ORCHA Q167 RIFLE Q439 BYSEL Q108 SAWED Q117 RREGG Q135 RAPZZ OMN BITHO7 |
| Aircraft | P46T/L-SBDGRWY/SB1 |
Departure
| Time | 2026-05-05 12:04 |
|---|---|
| Airport | Block Island State Airport (KBID) |
Arrival
| Time | N/A |
|---|---|
| Airport | Cape Canaveral SFS Skid Strip (KXMR) |
| Time | Latitude | Longitude | Altitude | Speed | Heading |
|---|---|---|---|---|---|
| 2026-05-05 11:59 | 41.16894 | -71.57870 | 110 ft | 0 kts | 97° |
| 2026-05-05 12:00 | 41.16883 | -71.57840 | 110 ft | 6 kts | 129° |
| 2026-05-05 12:00 | 41.16882 | -71.57763 | 113 ft | 12 kts | 82° |
| 2026-05-05 12:00 | 41.16889 | -71.57635 | 114 ft | 13 kts | 92° |
| 2026-05-05 12:00 | 41.16875 | -71.57550 | 113 ft | 4 kts | 105° |
| 2026-05-05 12:01 | 41.16868 | -71.57529 | 113 ft | 4 kts | 119° |
| 2026-05-05 12:01 | 41.16840 | -71.57454 | 112 ft | 9 kts | 84° |
| 2026-05-05 12:01 | 41.16845 | -71.57407 | 112 ft | 6 kts | 86° |
| 2026-05-05 12:01 | 41.16844 | -71.57381 | 113 ft | 0 kts | 86° |
| 2026-05-05 12:02 | 41.16848 | -71.57371 | 113 ft | 5 kts | 49° |
| 2026-05-05 12:02 | 41.16854 | -71.57340 | 112 ft | 0 kts | 131° |
| 2026-05-05 12:02 | 41.16848 | -71.57353 | 113 ft | 4 kts | 274° |
| 2026-05-05 12:02 | 41.16848 | -71.57356 | 113 ft | 0 kts | 266° |
| 2026-05-05 12:03 | 41.16841 | -71.57451 | 112 ft | 35 kts | 261° |
| 2026-05-05 12:03 | 41.16794 | -71.58010 | 112 ft | 84 kts | 261° |
| 2026-05-05 12:04 | 41.16726 | -71.59069 | 493 ft | 92 kts | 265° |
| 2026-05-05 12:04 | 41.16738 | -71.59922 | 933 ft | 96 kts | 269° |
| 2026-05-05 12:04 | 41.16764 | -71.60846 | 1255 ft | 113 kts | 266° |
| 2026-05-05 12:04 | 41.16770 | -71.61532 | 1622 ft | 108 kts | 266° |
| 2026-05-05 12:05 | 41.16766 | -71.62503 | 2139 ft | 105 kts | 264° |
| 2026-05-05 12:05 | 41.16542 | -71.63411 | 2580 ft | 105 kts | 244° |
| 2026-05-05 12:05 | 41.16232 | -71.64287 | 3066 ft | 105 kts | 245° |
| 2026-05-05 12:05 | 41.15926 | -71.65169 | 3548 ft | 105 kts | 245° |
| 2026-05-05 12:06 | 41.15617 | -71.66050 | 4014 ft | 106 kts | 244° |
| 2026-05-05 12:06 | 41.15306 | -71.66943 | 4483 ft | 107 kts | 244° |
| 2026-05-05 12:06 | 41.14886 | -71.68130 | 5102 ft | 108 kts | 242° |
| 2026-05-05 12:06 | 41.14657 | -71.68735 | 5406 ft | 109 kts | 243° |
| 2026-05-05 12:07 | 41.14322 | -71.69637 | 5845 ft | 113 kts | 243° |
| 2026-05-05 12:07 | 41.13956 | -71.70636 | 6095 ft | 127 kts | 243° |
| 2026-05-05 12:07 | 41.13571 | -71.71687 | 6528 ft | 127 kts | 243° |
| 2026-05-05 12:07 | 41.13180 | -71.72755 | 6924 ft | 130 kts | 243° |
| 2026-05-05 12:08 | 41.12784 | -71.73833 | 7352 ft | 130 kts | 244° |
| 2026-05-05 12:08 | 41.12387 | -71.74916 | 7770 ft | 131 kts | 244° |
| 2026-05-05 12:08 | 41.11987 | -71.76006 | 8195 ft | 132 kts | 245° |
| 2026-05-05 12:08 | 41.11586 | -71.77099 | 8622 ft | 132 kts | 245° |
| 2026-05-05 12:09 | 41.11183 | -71.78197 | 9049 ft | 133 kts | 245° |
| 2026-05-05 12:09 | 41.10783 | -71.79286 | 9471 ft | 134 kts | 245° |
| 2026-05-05 12:09 | 41.10375 | -71.80395 | 9898 ft | 134 kts | 246° |
| 2026-05-05 12:09 | 41.09966 | -71.81510 | 10281 ft | 135 kts | 245° |
| 2026-05-05 12:10 | 41.09552 | -71.82635 | 10647 ft | 136 kts | 245° |
| 2026-05-05 12:10 | 41.09134 | -71.83769 | 11048 ft | 138 kts | 245° |
| 2026-05-05 12:10 | 41.08713 | -71.84913 | 11431 ft | 139 kts | 245° |
| 2026-05-05 12:10 | 41.08288 | -71.86068 | 11824 ft | 140 kts | 245° |
| 2026-05-05 12:11 | 41.07861 | -71.87228 | 12213 ft | 141 kts | 244° |
| 2026-05-05 12:11 | 41.07429 | -71.88400 | 12598 ft | 142 kts | 244° |
| 2026-05-05 12:11 | 41.06993 | -71.89584 | 12989 ft | 143 kts | 244° |
| 2026-05-05 12:11 | 41.06559 | -71.90759 | 13377 ft | 144 kts | 244° |
| 2026-05-05 12:12 | 41.06118 | -71.91955 | 13803 ft | 144 kts | 244° |
| 2026-05-05 12:12 | 41.05676 | -71.93152 | 14152 ft | 145 kts | 244° |
| 2026-05-05 12:12 | 41.05232 | -71.94356 | 14485 ft | 146 kts | 243° |
| 2026-05-05 12:12 | 41.04782 | -71.95573 | 14827 ft | 148 kts | 243° |
| 2026-05-05 12:13 | 41.04330 | -71.96797 | 15170 ft | 149 kts | 243° |
| 2026-05-05 12:13 | 41.03873 | -71.98032 | 15512 ft | 150 kts | 243° |
| 2026-05-05 12:13 | 41.03413 | -71.99275 | 15860 ft | 151 kts | 242° |
| 2026-05-05 12:13 | 41.02956 | -72.00509 | 16212 ft | 152 kts | 242° |
| 2026-05-05 12:14 | 41.02489 | -72.01772 | 16575 ft | 153 kts | 242° |
| 2026-05-05 12:14 | 41.02017 | -72.03044 | 16927 ft | 155 kts | 241° |
| 2026-05-05 12:14 | 41.01542 | -72.04328 | 17281 ft | 156 kts | 241° |
| 2026-05-05 12:14 | 41.01063 | -72.05620 | 17629 ft | 157 kts | 241° |
| 2026-05-05 12:15 | 41.00580 | -72.06922 | 17981 ft | 158 kts | 240° |
| 2026-05-05 12:15 | 41.00094 | -72.08233 | 18322 ft | 159 kts | 240° |
| 2026-05-05 12:15 | 40.99604 | -72.09552 | 18622 ft | 160 kts | 240° |
| 2026-05-05 12:15 | 40.99110 | -72.10883 | 18910 ft | 162 kts | 240° |
| 2026-05-05 12:16 | 40.98618 | -72.12207 | 19206 ft | 163 kts | 240° |
| 2026-05-05 12:16 | 40.98115 | -72.13561 | 19507 ft | 165 kts | 240° |
| 2026-05-05 12:16 | 40.97607 | -72.14925 | 19803 ft | 166 kts | 240° |
| 2026-05-05 12:16 | 40.97096 | -72.16300 | 20096 ft | 167 kts | 240° |
| 2026-05-05 12:17 | 40.96615 | -72.17595 | 20731 ft | 149 kts | 240° |
| 2026-05-05 12:17 | 40.96153 | -72.18824 | 21097 ft | 151 kts | 240° |
| 2026-05-05 12:17 | 40.95686 | -72.20078 | 21447 ft | 152 kts | 240° |
| 2026-05-05 12:17 | 40.95215 | -72.21340 | 21799 ft | 154 kts | 240° |
| 2026-05-05 12:18 | 40.94746 | -72.22599 | 22153 ft | 155 kts | 240° |
| 2026-05-05 12:18 | 40.94267 | -72.23883 | 22501 ft | 157 kts | 241° |
| 2026-05-05 12:18 | 40.93782 | -72.25181 | 22855 ft | 158 kts | 241° |
| 2026-05-05 12:18 | 40.93293 | -72.26491 | 23228 ft | 159 kts | 241° |
| 2026-05-05 12:19 | 40.92800 | -72.27809 | 23583 ft | 161 kts | 241° |
| 2026-05-05 12:19 | 40.92304 | -72.29140 | 23885 ft | 162 kts | 241° |
| 2026-05-05 12:19 | 40.91802 | -72.30480 | 24189 ft | 163 kts | 240° |
| 2026-05-05 12:19 | 40.91153 | -72.31704 | 24489 ft | 163 kts | 225° |
| 2026-05-05 12:20 | 40.90334 | -72.32758 | 24784 ft | 165 kts | 224° |
| 2026-05-05 12:20 | 40.89531 | -72.33820 | 25086 ft | 166 kts | 224° |
| 2026-05-05 12:20 | 40.88708 | -72.34901 | 25384 ft | 168 kts | 224° |
| 2026-05-05 12:20 | 40.87876 | -72.35989 | 25686 ft | 169 kts | 224° |
| 2026-05-05 12:21 | 40.87038 | -72.37085 | 25987 ft | 170 kts | 224° |
| 2026-05-05 12:21 | 40.86192 | -72.38191 | 26289 ft | 172 kts | 224° |
| 2026-05-05 12:21 | 40.85341 | -72.39303 | 26586 ft | 173 kts | 224° |
| 2026-05-05 12:21 | 40.84482 | -72.40424 | 26890 ft | 174 kts | 224° |
| 2026-05-05 12:22 | 40.83616 | -72.41555 | 27171 ft | 176 kts | 224° |
| 2026-05-05 12:22 | 40.82746 | -72.42692 | 27472 ft | 177 kts | 223° |
| 2026-05-05 12:22 | 40.81882 | -72.43818 | 27770 ft | 178 kts | 223° |
| 2026-05-05 12:22 | 40.80995 | -72.44975 | 27990 ft | 184 kts | 223° |
| 2026-05-05 12:23 | 40.80048 | -72.46202 | 27988 ft | 197 kts | 221° |
| 2026-05-05 12:23 | 40.78963 | -72.47389 | 27999 ft | 208 kts | 219° |
| 2026-05-05 12:23 | 40.77818 | -72.48627 | 27983 ft | 217 kts | 219° |
| 2026-05-05 12:23 | 40.76633 | -72.49917 | 27989 ft | 224 kts | 219° |
| 2026-05-05 12:24 | 40.75417 | -72.51238 | 27987 ft | 229 kts | 219° |
| 2026-05-05 12:24 | 40.74183 | -72.52578 | 27992 ft | 231 kts | 219° |
| 2026-05-05 12:24 | 40.72937 | -72.53928 | 27977 ft | 233 kts | 219° |
| 2026-05-05 12:24 | 40.71699 | -72.55270 | 27978 ft | 234 kts | 219° |
| 2026-05-05 12:25 | 40.70438 | -72.56635 | 27982 ft | 235 kts | 219° |
| 2026-05-05 12:25 | 40.69174 | -72.58004 | 27986 ft | 235 kts | 219° |
| 2026-05-05 12:25 | 40.67996 | -72.59503 | 27987 ft | 236 kts | 224° |
| 2026-05-05 12:25 | 40.66834 | -72.61039 | 27989 ft | 237 kts | 224° |
| 2026-05-05 12:26 | 40.65662 | -72.62570 | 27980 ft | 238 kts | 224° |
| 2026-05-05 12:26 | 40.64488 | -72.64104 | 27975 ft | 238 kts | 224° |
| 2026-05-05 12:26 | 40.63317 | -72.65636 | 27975 ft | 238 kts | 224° |
| 2026-05-05 12:26 | 40.62159 | -72.67151 | 27987 ft | 238 kts | 224° |
| 2026-05-05 12:27 | 40.60987 | -72.68685 | 27971 ft | 238 kts | 224° |
| 2026-05-05 12:27 | 40.59814 | -72.70217 | 27974 ft | 238 kts | 224° |
| 2026-05-05 12:27 | 40.58641 | -72.71749 | 27971 ft | 238 kts | 224° |
| 2026-05-05 12:27 | 40.57467 | -72.73281 | 27976 ft | 238 kts | 224° |
| 2026-05-05 12:28 | 40.56293 | -72.74814 | 27985 ft | 238 kts | 224° |
| 2026-05-05 12:28 | 40.55120 | -72.76343 | 27979 ft | 238 kts | 224° |
| 2026-05-05 12:28 | 40.53944 | -72.77875 | 27979 ft | 238 kts | 224° |
| 2026-05-05 12:28 | 40.52770 | -72.79405 | 27983 ft | 238 kts | 224° |
| 2026-05-05 12:29 | 40.51583 | -72.80870 | 27986 ft | 237 kts | 221° |
| 2026-05-05 12:29 | 40.50367 | -72.82336 | 27977 ft | 237 kts | 222° |
| 2026-05-05 12:29 | 40.49154 | -72.83809 | 27982 ft | 238 kts | 222° |
| 2026-05-05 12:29 | 40.47940 | -72.85280 | 27980 ft | 238 kts | 222° |
| 2026-05-05 12:30 | 40.46723 | -72.86748 | 27970 ft | 237 kts | 222° |
| 2026-05-05 12:30 | 40.45509 | -72.88212 | 27974 ft | 237 kts | 222° |
| 2026-05-05 12:30 | 40.44294 | -72.89678 | 27974 ft | 237 kts | 222° |
| 2026-05-05 12:30 | 40.43080 | -72.91142 | 27971 ft | 237 kts | 222° |
| 2026-05-05 12:31 | 40.41865 | -72.92606 | 27975 ft | 237 kts | 222° |
| 2026-05-05 12:31 | 40.40667 | -72.94048 | 27978 ft | 237 kts | 222° |
| 2026-05-05 12:31 | 40.39451 | -72.95508 | 27979 ft | 237 kts | 222° |
| 2026-05-05 12:31 | 40.38234 | -72.96970 | 27973 ft | 237 kts | 222° |
| 2026-05-05 12:32 | 40.37017 | -72.98431 | 27973 ft | 237 kts | 223° |
| 2026-05-05 12:32 | 40.35799 | -72.99895 | 27977 ft | 237 kts | 223° |
| 2026-05-05 12:32 | 40.34582 | -73.01360 | 27973 ft | 238 kts | 223° |
| 2026-05-05 12:32 | 40.33365 | -73.02822 | 27983 ft | 238 kts | 223° |
| 2026-05-05 12:33 | 40.32145 | -73.04287 | 27983 ft | 238 kts | 223° |
| 2026-05-05 12:33 | 40.30943 | -73.05730 | 27976 ft | 238 kts | 223° |
| 2026-05-05 12:33 | 40.29724 | -73.07193 | 27972 ft | 238 kts | 223° |
| 2026-05-05 12:33 | 40.28505 | -73.08654 | 27968 ft | 237 kts | 223° |
| 2026-05-05 12:34 | 40.27291 | -73.10110 | 27963 ft | 237 kts | 223° |
| 2026-05-05 12:34 | 40.26074 | -73.11568 | 27968 ft | 237 kts | 223° |
| 2026-05-05 12:34 | 40.24858 | -73.13023 | 27975 ft | 237 kts | 223° |
| 2026-05-05 12:34 | 40.23643 | -73.14478 | 27967 ft | 237 kts | 223° |
| 2026-05-05 12:35 | 40.22427 | -73.15932 | 27980 ft | 237 kts | 223° |
| 2026-05-05 12:35 | 40.21213 | -73.17384 | 27972 ft | 237 kts | 223° |
| 2026-05-05 12:35 | 40.19999 | -73.18834 | 27969 ft | 237 kts | 223° |
| 2026-05-05 12:35 | 40.18798 | -73.20268 | 27973 ft | 237 kts | 223° |
| 2026-05-05 12:36 | 40.17584 | -73.21718 | 27978 ft | 236 kts | 223° |
| 2026-05-05 12:36 | 40.16370 | -73.23166 | 27979 ft | 236 kts | 223° |
| 2026-05-05 12:36 | 40.15154 | -73.24616 | 27973 ft | 237 kts | 223° |
| 2026-05-05 12:36 | 40.13938 | -73.26065 | 27972 ft | 236 kts | 223° |
| 2026-05-05 12:37 | 40.12724 | -73.27512 | 27977 ft | 236 kts | 223° |
| 2026-05-05 12:37 | 40.11526 | -73.28975 | 27969 ft | 235 kts | 229° |
| 2026-05-05 12:37 | 40.10622 | -73.30740 | 27977 ft | 234 kts | 245° |
| 2026-05-05 12:37 | 40.10157 | -73.32766 | 27975 ft | 234 kts | 262° |
| 2026-05-05 12:38 | 40.10204 | -73.34864 | 27982 ft | 236 kts | 278° |
| 2026-05-05 12:38 | 40.10764 | -73.36892 | 27986 ft | 241 kts | 295° |
| 2026-05-05 12:38 | 40.11797 | -73.38633 | 27988 ft | 246 kts | 312° |
| 2026-05-05 12:38 | 40.13217 | -73.39917 | 27986 ft | 253 kts | 329° |
| 2026-05-05 12:39 | 40.14912 | -73.40622 | 27972 ft | 260 kts | 346° |
| 2026-05-05 12:39 | 40.16737 | -73.40667 | 27970 ft | 266 kts | 4° |
| 2026-05-05 12:39 | 40.18552 | -73.40108 | 27975 ft | 269 kts | 13° |
| 2026-05-05 12:39 | 40.20366 | -73.39495 | 27974 ft | 269 kts | 8° |
| 2026-05-05 12:40 | 40.22213 | -73.39216 | 27976 ft | 266 kts | 356° |
| 2026-05-05 12:40 | 40.24010 | -73.39461 | 27975 ft | 262 kts | 345° |
| 2026-05-05 12:40 | 40.25803 | -73.39916 | 27973 ft | 262 kts | 345° |
| 2026-05-05 12:40 | 40.27611 | -73.40282 | 27982 ft | 264 kts | 348° |
| 2026-05-05 12:41 | 40.29434 | -73.40571 | 27981 ft | 264 kts | 349° |
| 2026-05-05 12:41 | 40.31257 | -73.40874 | 27974 ft | 264 kts | 348° |
| 2026-05-05 12:41 | 40.33078 | -73.41199 | 27972 ft | 264 kts | 348° |
| 2026-05-05 12:41 | 40.34896 | -73.41524 | 27971 ft | 264 kts | 348° |
| 2026-05-05 12:42 | 40.36721 | -73.41845 | 27963 ft | 265 kts | 348° |
| 2026-05-05 12:42 | 40.38552 | -73.42166 | 27963 ft | 266 kts | 348° |
| 2026-05-05 12:42 | 40.40360 | -73.42485 | 27964 ft | 266 kts | 348° |
| 2026-05-05 12:42 | 40.42195 | -73.42808 | 27964 ft | 266 kts | 348° |
| 2026-05-05 12:43 | 40.44026 | -73.43131 | 27962 ft | 267 kts | 348° |
| 2026-05-05 12:43 | 40.45862 | -73.43455 | 27963 ft | 267 kts | 348° |
| 2026-05-05 12:43 | 40.47702 | -73.43780 | 27964 ft | 267 kts | 348° |
| 2026-05-05 12:43 | 40.49542 | -73.44105 | 27964 ft | 267 kts | 348° |
| 2026-05-05 12:44 | 40.51385 | -73.44431 | 27966 ft | 267 kts | 348° |
| 2026-05-05 12:44 | 40.53228 | -73.44756 | 27958 ft | 267 kts | 348° |
| 2026-05-05 12:44 | 40.55034 | -73.45075 | 27866 ft | 268 kts | 348° |
| 2026-05-05 12:44 | 40.56950 | -73.45417 | 27066 ft | 289 kts | 348° |
| 2026-05-05 12:45 | 40.58976 | -73.45774 | 26555 ft | 295 kts | 349° |
| 2026-05-05 12:45 | 40.61002 | -73.46126 | 26214 ft | 292 kts | 348° |
| 2026-05-05 12:45 | 40.63011 | -73.46483 | 25876 ft | 291 kts | 348° |
| 2026-05-05 12:45 | 40.65009 | -73.46839 | 25548 ft | 289 kts | 348° |
| 2026-05-05 12:46 | 40.66992 | -73.47192 | 25239 ft | 287 kts | 348° |
| 2026-05-05 12:46 | 40.68965 | -73.47542 | 24938 ft | 285 kts | 348° |
| 2026-05-05 12:46 | 40.70897 | -73.47885 | 24646 ft | 283 kts | 348° |
| 2026-05-05 12:46 | 40.72845 | -73.48232 | 24358 ft | 282 kts | 347° |
| 2026-05-05 12:47 | 40.74783 | -73.48577 | 24078 ft | 280 kts | 347° |
| 2026-05-05 12:47 | 40.76704 | -73.48919 | 23811 ft | 278 kts | 347° |
| 2026-05-05 12:47 | 40.78621 | -73.49260 | 23518 ft | 277 kts | 347° |
| 2026-05-05 12:47 | 40.80524 | -73.49601 | 23179 ft | 278 kts | 347° |
| 2026-05-05 12:48 | 40.82445 | -73.49945 | 22833 ft | 278 kts | 347° |
| 2026-05-05 12:48 | 40.84361 | -73.50285 | 22540 ft | 277 kts | 347° |
| 2026-05-05 12:48 | 40.86266 | -73.50625 | 22248 ft | 275 kts | 347° |
| 2026-05-05 12:48 | 40.88133 | -73.50959 | 21967 ft | 274 kts | 347° |
| 2026-05-05 12:49 | 40.90020 | -73.51297 | 21706 ft | 273 kts | 347° |
| 2026-05-05 12:49 | 40.91895 | -73.51632 | 21453 ft | 271 kts | 347° |
| 2026-05-05 12:49 | 40.93764 | -73.51966 | 21187 ft | 270 kts | 347° |
| 2026-05-05 12:49 | 40.95617 | -73.52297 | 20785 ft | 268 kts | 347° |
| 2026-05-05 12:50 | 40.97462 | -73.52627 | 20340 ft | 267 kts | 346° |
| 2026-05-05 12:50 | 40.99295 | -73.52955 | 19917 ft | 265 kts | 346° |
| 2026-05-05 12:50 | 41.01116 | -73.53282 | 19513 ft | 263 kts | 346° |
| 2026-05-05 12:50 | 41.02932 | -73.53609 | 19098 ft | 263 kts | 346° |
| 2026-05-05 12:51 | 41.04736 | -73.53933 | 18713 ft | 261 kts | 346° |
| 2026-05-05 12:51 | 41.06526 | -73.54253 | 18333 ft | 258 kts | 346° |
| 2026-05-05 12:51 | 41.08280 | -73.54569 | 17833 ft | 257 kts | 346° |
| 2026-05-05 12:51 | 41.10040 | -73.54885 | 17355 ft | 254 kts | 346° |
| 2026-05-05 12:52 | 41.11784 | -73.55197 | 16777 ft | 251 kts | 345° |
| 2026-05-05 12:52 | 41.13509 | -73.55507 | 16133 ft | 249 kts | 345° |
| 2026-05-05 12:52 | 41.15215 | -73.55815 | 15545 ft | 246 kts | 345° |
| 2026-05-05 12:52 | 41.16826 | -73.56367 | 14926 ft | 232 kts | 324° |
| 2026-05-05 12:53 | 41.18123 | -73.57553 | 14363 ft | 223 kts | 314° |
| 2026-05-05 12:53 | 41.19296 | -73.58831 | 13827 ft | 219 kts | 311° |
| 2026-05-05 12:53 | 41.20443 | -73.60144 | 13242 ft | 216 kts | 311° |
| 2026-05-05 12:53 | 41.21408 | -73.61602 | 12603 ft | 205 kts | 291° |
| 2026-05-05 12:54 | 41.22022 | -73.65150 | 11459 ft | 195 kts | 270° |
| 2026-05-05 12:54 | 41.22153 | -73.66946 | 10906 ft | 195 kts | 270° |
| 2026-05-05 12:54 | 41.22290 | -73.68734 | 10395 ft | 194 kts | 270° |
| 2026-05-05 12:55 | 41.22289 | -73.70476 | 10012 ft | 180 kts | 253° |
| 2026-05-05 12:55 | 41.21974 | -73.71971 | 9894 ft | 166 kts | 249° |
| 2026-05-05 12:55 | 41.21618 | -73.73517 | 9118 ft | 183 kts | 250° |
| 2026-05-05 12:55 | 41.21230 | -73.75120 | 8630 ft | 182 kts | 249° |
| 2026-05-05 12:56 | 41.20826 | -73.76698 | 8131 ft | 180 kts | 248° |
| 2026-05-05 12:56 | 41.20337 | -73.78222 | 7657 ft | 179 kts | 245° |
| 2026-05-05 12:56 | 41.19815 | -73.79715 | 7181 ft | 178 kts | 244° |
| 2026-05-05 12:56 | 41.19282 | -73.81198 | 6712 ft | 178 kts | 244° |
| 2026-05-05 12:57 | 41.18737 | -73.82670 | 6261 ft | 178 kts | 244° |
| 2026-05-05 12:57 | 41.18186 | -73.84123 | 5732 ft | 176 kts | 244° |
| 2026-05-05 12:57 | 41.17636 | -73.85550 | 5209 ft | 175 kts | 244° |
| 2026-05-05 12:57 | 41.17074 | -73.86981 | 4689 ft | 175 kts | 244° |
| 2026-05-05 12:58 | 41.16432 | -73.88345 | 4111 ft | 175 kts | 238° |
| 2026-05-05 12:58 | 41.15819 | -73.89736 | 3582 ft | 173 kts | 243° |
| 2026-05-05 12:58 | 41.15243 | -73.91126 | 3099 ft | 171 kts | 244° |
| 2026-05-05 12:58 | 41.14750 | -73.92490 | 3009 ft | 160 kts | 246° |
| 2026-05-05 12:59 | 41.14274 | -73.93844 | 2998 ft | 164 kts | 246° |
| 2026-05-05 12:59 | 41.13788 | -73.95231 | 2998 ft | 166 kts | 246° |
| 2026-05-05 12:59 | 41.13183 | -73.96532 | 2994 ft | 170 kts | 225° |
| 2026-05-05 13:00 | 41.10836 | -73.96518 | 2966 ft | 200 kts | 156° |
| 2026-05-05 13:00 | 41.09671 | -73.95467 | 2857 ft | 205 kts | 153° |
| 2026-05-05 13:01 | 41.05935 | -73.92948 | 2504 ft | 184 kts | 168° |
| 2026-05-05 13:01 | 41.04897 | -73.92063 | 2492 ft | 177 kts | 141° |
| 2026-05-05 13:01 | 41.04157 | -73.90845 | 2493 ft | 168 kts | 137° |
| 2026-05-05 13:01 | 41.03450 | -73.89643 | 2493 ft | 163 kts | 137° |
| 2026-05-05 13:02 | 41.02732 | -73.88427 | 2285 ft | 173 kts | 137° |
| 2026-05-05 13:02 | 41.01969 | -73.87156 | 2044 ft | 180 kts | 137° |
| 2026-05-05 13:02 | 41.01086 | -73.86118 | 1987 ft | 158 kts | 168° |
| 2026-05-05 13:02 | 41.00082 | -73.86052 | 1983 ft | 141 kts | 194° |
| 2026-05-05 13:03 | 40.99129 | -73.86153 | 1981 ft | 131 kts | 200° |
| 2026-05-05 13:03 | 40.98412 | -73.86733 | 1982 ft | 119 kts | 227° |
| 2026-05-05 13:03 | 40.97841 | -73.87501 | 1990 ft | 115 kts | 230° |
| 2026-05-05 13:03 | 40.97285 | -73.88278 | 1994 ft | 118 kts | 231° |
| 2026-05-05 13:04 | 40.96759 | -73.89113 | 2002 ft | 124 kts | 244° |
| 2026-05-05 13:04 | 40.96431 | -73.90214 | 2006 ft | 133 kts | 250° |
| 2026-05-05 13:04 | 40.96107 | -73.91374 | 2006 ft | 135 kts | 250° |
| 2026-05-05 13:04 | 40.95786 | -73.92523 | 2012 ft | 133 kts | 250° |
| 2026-05-05 13:05 | 40.95458 | -73.93696 | 2007 ft | 139 kts | 250° |
| 2026-05-05 13:05 | 40.95120 | -73.94915 | 2009 ft | 144 kts | 250° |
| 2026-05-05 13:05 | 40.94775 | -73.96166 | 2010 ft | 145 kts | 250° |
| 2026-05-05 13:05 | 40.94422 | -73.97420 | 2005 ft | 145 kts | 250° |
| 2026-05-05 13:06 | 40.94071 | -73.98672 | 1928 ft | 146 kts | 250° |
| 2026-05-05 13:06 | 40.93719 | -73.99936 | 1810 ft | 148 kts | 250° |
| 2026-05-05 13:06 | 40.93371 | -74.01203 | 1695 ft | 149 kts | 250° |
| 2026-05-05 13:06 | 40.93016 | -74.02499 | 1540 ft | 149 kts | 250° |
| 2026-05-05 13:07 | 40.92550 | -74.03703 | 1454 ft | 147 kts | 234° |
| 2026-05-05 13:07 | 40.91828 | -74.04565 | 1482 ft | 137 kts | 217° |
| 2026-05-05 13:07 | 40.90953 | -74.05097 | 1320 ft | 139 kts | 203° |
| 2026-05-05 13:07 | 40.90045 | -74.05426 | 1019 ft | 129 kts | 193° |
| 2026-05-05 13:08 | 40.89201 | -74.05594 | 787 ft | 119 kts | 189° |
| 2026-05-05 13:08 | 40.88391 | -74.05688 | 610 ft | 115 kts | 185° |
| 2026-05-05 13:08 | 40.87599 | -74.05758 | 477 ft | 108 kts | 183° |
| 2026-05-05 13:08 | 40.86901 | -74.05814 | 293 ft | 92 kts | 182° |
| 2026-05-05 13:09 | 40.86294 | -74.05854 | 182 ft | 86 kts | 184° |
| 2026-05-05 13:09 | 40.85717 | -74.05902 | 68 ft | 81 kts | 181° |
| 2026-05-05 13:09 | 40.85207 | -74.05938 | 8 ft | 62 kts | 184° |
| 2026-05-05 13:09 | 40.84887 | -74.05963 | 8 ft | 29 kts | 183° |
| 2026-05-05 13:10 | 40.84760 | -74.05999 | 10 ft | 15 kts | 213° |
| 2026-05-05 13:10 | 40.84715 | -74.06056 | 9 ft | 3 kts | 228° |
| 2026-05-05 13:10 | 40.84698 | -74.06088 | 9 ft | 6 kts | 250° |
| 2026-05-05 13:10 | 40.84693 | -74.06117 | 9 ft | 5 kts | 259° |
| 2026-05-05 13:11 | 40.84713 | -74.06199 | 10 ft | 14 kts | 310° |
| 2026-05-05 13:11 | 40.84772 | -74.06299 | 10 ft | 14 kts | 307° |
| 2026-05-05 13:11 | 40.84824 | -74.06390 | 12 ft | 11 kts | 308° |
| 2026-05-05 13:11 | 40.84869 | -74.06466 | 14 ft | 10 kts | 307° |
| 2026-05-05 13:12 | 40.84900 | -74.06519 | 14 ft | 7 kts | 307° |
| 2026-05-05 13:12 | 40.84932 | -74.06574 | 13 ft | 8 kts | 309° |
| 2026-05-05 13:12 | 40.84965 | -74.06632 | 14 ft | 7 kts | 306° |
| 2026-05-05 13:12 | 40.84995 | -74.06682 | 15 ft | 7 kts | 308° |
| 2026-05-05 13:13 | 40.85052 | -74.06700 | 15 ft | 11 kts | 22° |
| 2026-05-05 13:13 | 40.85101 | -74.06729 | 13 ft | 7 kts | 306° |
| 2026-05-05 13:13 | 40.85127 | -74.06775 | 12 ft | 0 kts | 307° |
| 2026-05-05 13:31 | 40.85128 | -74.06775 | 11 ft | 1 kts | 307° |
| 2026-05-05 13:31 | 40.85138 | -74.06765 | 11 ft | 0 kts | 99° |
| 2026-05-05 13:32 | 40.85107 | -74.06744 | 12 ft | 6 kts | 165° |
| 2026-05-05 13:32 | 40.85077 | -74.06728 | 13 ft | 4 kts | 136° |
| 2026-05-05 13:32 | 40.85066 | -74.06713 | 13 ft | 0 kts | 129° |
| 2026-05-05 13:32 | 40.85064 | -74.06711 | 14 ft | 0 kts | 141° |
| 2026-05-05 13:33 | 40.85050 | -74.06706 | 14 ft | 5 kts | 177° |
| 2026-05-05 13:33 | 40.85026 | -74.06707 | 14 ft | 6 kts | 178° |
| 2026-05-05 13:33 | 40.85008 | -74.06700 | 15 ft | 6 kts | 152° |
| 2026-05-05 13:33 | 40.84963 | -74.06642 | 14 ft | 9 kts | 165° |
| 2026-05-05 13:34 | 40.84827 | -74.06809 | 10 ft | 55 kts | 228° |
| 2026-05-05 13:34 | 40.84492 | -74.07344 | 89 ft | 88 kts | 230° |
| 2026-05-05 13:34 | 40.84098 | -74.07982 | 430 ft | 91 kts | 230° |
| 2026-05-05 13:34 | 40.83730 | -74.08695 | 802 ft | 94 kts | 232° |
| 2026-05-05 13:35 | 40.83269 | -74.09275 | 1236 ft | 96 kts | 220° |
| 2026-05-05 13:35 | 40.82615 | -74.09641 | 1648 ft | 112 kts | 192° |
| 2026-05-05 13:35 | 40.81765 | -74.09631 | 1900 ft | 131 kts | 194° |
| 2026-05-05 13:35 | 40.80871 | -74.09752 | 2427 ft | 121 kts | 203° |
| 2026-05-05 13:36 | 40.80056 | -74.09956 | 2961 ft | 119 kts | 202° |
| 2026-05-05 13:36 | 40.79233 | -74.10173 | 3438 ft | 122 kts | 201° |
| 2026-05-05 13:36 | 40.78351 | -74.10102 | 3917 ft | 129 kts | 184° |
| 2026-05-05 13:36 | 40.77441 | -74.09993 | 4277 ft | 138 kts | 186° |
| 2026-05-05 13:37 | 40.76480 | -74.09905 | 4758 ft | 138 kts | 186° |
| 2026-05-05 13:37 | 40.75526 | -74.09795 | 5232 ft | 138 kts | 184° |
| 2026-05-05 13:37 | 40.74572 | -74.09672 | 5718 ft | 137 kts | 184° |
| 2026-05-05 13:37 | 40.73628 | -74.09557 | 6220 ft | 136 kts | 184° |
| 2026-05-05 13:38 | 40.72699 | -74.09448 | 6665 ft | 135 kts | 184° |
| 2026-05-05 13:38 | 40.71764 | -74.09336 | 7122 ft | 135 kts | 184° |
| 2026-05-05 13:38 | 40.70856 | -74.09426 | 7555 ft | 129 kts | 200° |
| 2026-05-05 13:38 | 40.69968 | -74.09649 | 8016 ft | 130 kts | 196° |
| 2026-05-05 13:39 | 40.69067 | -74.09819 | 8478 ft | 131 kts | 195° |
| 2026-05-05 13:39 | 40.68165 | -74.09976 | 8930 ft | 132 kts | 195° |
| 2026-05-05 13:39 | 40.67252 | -74.10127 | 9380 ft | 132 kts | 195° |
| 2026-05-05 13:39 | 40.66342 | -74.10276 | 9824 ft | 132 kts | 195° |
| 2026-05-05 13:40 | 40.65442 | -74.10424 | 10210 ft | 133 kts | 196° |
| 2026-05-05 13:40 | 40.64520 | -74.10574 | 10595 ft | 135 kts | 197° |
| 2026-05-05 13:40 | 40.63582 | -74.10726 | 10964 ft | 137 kts | 197° |
| 2026-05-05 13:40 | 40.62604 | -74.10889 | 11276 ft | 144 kts | 197° |
| 2026-05-05 13:41 | 40.61607 | -74.11048 | 11674 ft | 145 kts | 197° |
| 2026-05-05 13:41 | 40.60602 | -74.11211 | 12049 ft | 146 kts | 197° |
| 2026-05-05 13:41 | 40.59586 | -74.11376 | 12424 ft | 149 kts | 198° |
| 2026-05-05 13:41 | 40.58550 | -74.11544 | 12796 ft | 150 kts | 198° |
| 2026-05-05 13:42 | 40.57505 | -74.11713 | 13174 ft | 152 kts | 198° |
| 2026-05-05 13:42 | 40.56451 | -74.11884 | 13567 ft | 154 kts | 198° |
| 2026-05-05 13:42 | 40.55398 | -74.12054 | 13931 ft | 155 kts | 199° |
| 2026-05-05 13:42 | 40.54319 | -74.12228 | 14263 ft | 157 kts | 199° |
| 2026-05-05 13:43 | 40.53229 | -74.12405 | 14606 ft | 158 kts | 198° |
| 2026-05-05 13:43 | 40.52130 | -74.12583 | 14949 ft | 160 kts | 198° |
| 2026-05-05 13:43 | 40.51020 | -74.12762 | 15291 ft | 162 kts | 198° |
| 2026-05-05 13:43 | 40.49898 | -74.12944 | 15635 ft | 163 kts | 198° |
| 2026-05-05 13:44 | 40.48765 | -74.13126 | 15984 ft | 165 kts | 198° |
| 2026-05-05 13:44 | 40.47623 | -74.13311 | 16315 ft | 166 kts | 198° |
| 2026-05-05 13:44 | 40.46468 | -74.13497 | 16655 ft | 168 kts | 198° |
| 2026-05-05 13:44 | 40.45316 | -74.13683 | 16976 ft | 170 kts | 198° |
| 2026-05-05 13:45 | 40.44134 | -74.13874 | 17320 ft | 172 kts | 198° |
| 2026-05-05 13:45 | 40.42940 | -74.14067 | 17664 ft | 174 kts | 197° |
| 2026-05-05 13:45 | 40.41734 | -74.14261 | 18004 ft | 175 kts | 197° |
| 2026-05-05 13:45 | 40.40523 | -74.14456 | 18344 ft | 177 kts | 197° |
| 2026-05-05 13:46 | 40.39296 | -74.14654 | 18635 ft | 179 kts | 197° |
| 2026-05-05 13:46 | 40.38057 | -74.14853 | 18933 ft | 180 kts | 197° |
| 2026-05-05 13:46 | 40.36813 | -74.15053 | 19243 ft | 181 kts | 197° |
| 2026-05-05 13:46 | 40.35560 | -74.15255 | 19564 ft | 180 kts | 197° |
| 2026-05-05 13:47 | 40.34405 | -74.15427 | 20189 ft | 163 kts | 198° |
| 2026-05-05 13:47 | 40.33278 | -74.15612 | 20541 ft | 164 kts | 198° |
| 2026-05-05 13:47 | 40.32140 | -74.15800 | 20898 ft | 166 kts | 198° |
| 2026-05-05 13:47 | 40.31010 | -74.16049 | 21248 ft | 161 kts | 208° |
| 2026-05-05 13:48 | 40.29989 | -74.16596 | 21620 ft | 159 kts | 213° |
| 2026-05-05 13:48 | 40.28958 | -74.17145 | 21974 ft | 160 kts | 212° |
| 2026-05-05 13:48 | 40.27920 | -74.17698 | 22334 ft | 162 kts | 212° |
| 2026-05-05 13:48 | 40.26874 | -74.18258 | 22695 ft | 163 kts | 212° |
| 2026-05-05 13:49 | 40.25822 | -74.18822 | 23059 ft | 164 kts | 212° |
| 2026-05-05 13:49 | 40.24761 | -74.19391 | 23398 ft | 166 kts | 212° |
| 2026-05-05 13:49 | 40.23702 | -74.19959 | 23714 ft | 168 kts | 212° |
| 2026-05-05 13:49 | 40.22620 | -74.20538 | 24017 ft | 168 kts | 212° |
| 2026-05-05 13:50 | 40.21536 | -74.21118 | 24318 ft | 169 kts | 212° |
| 2026-05-05 13:50 | 40.20444 | -74.21703 | 24621 ft | 170 kts | 211° |
| 2026-05-05 13:50 | 40.19345 | -74.22291 | 24924 ft | 171 kts | 211° |
| 2026-05-05 13:50 | 40.18243 | -74.22880 | 25227 ft | 172 kts | 211° |
| 2026-05-05 13:51 | 40.17137 | -74.23472 | 25531 ft | 172 kts | 211° |
| 2026-05-05 13:51 | 40.16026 | -74.24066 | 25842 ft | 173 kts | 211° |
| 2026-05-05 13:51 | 40.14910 | -74.24662 | 26148 ft | 174 kts | 211° |
| 2026-05-05 13:51 | 40.13800 | -74.25255 | 26449 ft | 175 kts | 211° |
| 2026-05-05 13:52 | 40.12673 | -74.25857 | 26753 ft | 176 kts | 211° |
| 2026-05-05 13:52 | 40.11540 | -74.26461 | 27064 ft | 176 kts | 210° |
| 2026-05-05 13:52 | 40.10402 | -74.27069 | 27365 ft | 177 kts | 210° |
| 2026-05-05 13:52 | 40.09257 | -74.27679 | 27668 ft | 178 kts | 210° |
| 2026-05-05 13:53 | 40.08106 | -74.28293 | 27976 ft | 179 kts | 210° |
| 2026-05-05 13:53 | 40.06920 | -74.28930 | 28031 ft | 191 kts | 210° |
| 2026-05-05 13:53 | 40.05649 | -74.29614 | 28038 ft | 204 kts | 209° |